windsock image

Welcome to Bigfield Strip.

anemometer image
     

 Help for dials.  
 
Local Met:

Wind:   
10 Min average:  
69 ° / 5.5 kts (4.3)
82° / 4.4

Temperature:  
24.8°C C
Dew Point:  
16.0°C C
QNH:  
Trend:  
1015.2 mb mb
-0.0mb/hr
BigField Strip. This image updates approximately every minute, it can have a two minute delay.  
 

Humidity:  
58 %
Sunrise:   04:15z
Sunset:   20:04z
Updated:  
  UTC
 
   More met info, trends, radar, history etc. available here   

LUTON Metar   EGGW 251750Z VRB03KT 9999 FEW050CB 23/15 Q1016
 
  TAF   2014/07/25 18:15 TAF EGGW 251700Z 2518/2618 02005KT 9999 SCT030 TEMPO 2518/2520 7000 SHRA PROB40 TEMPO 2518/2520 VRB15G25KT 4000 +SHRA TSRA TEMPO 2601/2608 8000 BKN007 PROB30 2602/2608 3000 BR BKN002 PROB30 TEMPO 2615/2618 7000 SHRA
 
BENSON Metar   EGUB 251750Z AUTO 25005KT 9999 // NCD 25/15 Q1016
 
  TAF   2014/07/25 15:03 TAF TAF EGUB 251356Z 2515/2518 01008KT 9999 FEW045 PROB30 TEMPO 2515/2518 7000 TSRA SCT040CB
 
Big Field view 1 icon   Big Field view 2 icon   Big Field view 3 icon   Chart AL3a in PDF icon   Chart AL3a in Word icon

WARNING:
This information is provided by the Airstrip unofficial weather station, DO NOT depend on the data provided here for any purpose.
This page is updated for latest Metars & TAF's every 5 minutes. Refresh the browser to check for the lastest.
Page designed for a minimum browser size of 1024x768.
© Copyright 2014 BigField Strip. This page auto generated 18:16 UTC - 25/07/2014   Contact Us
Valid HTML 4.01 Transitional     Windows uptime: 4 Days 15 Hours 44 Minutes 3 Seconds    WD started: 02:38 21/07/14    Free memory: 1524MB     Valid CSS!